createdAt,value
2022-08-09T00:01:55.326Z,0.80
2022-08-09T00:05:02.862Z,0.90
2022-08-09T00:08:32.199Z,0.80
2022-08-09T00:11:58.441Z,0.95
2022-08-09T00:15:06.283Z,0.95
2022-08-09T00:18:11.104Z,1.20
2022-08-09T00:21:15.842Z,1.00
2022-08-09T00:24:19.792Z,1.20
2022-08-09T00:30:30.556Z,1.17
2022-08-09T00:36:55.846Z,1.17
2022-08-09T00:40:09.836Z,1.30
2022-08-09T00:44:11.267Z,1.37
2022-08-09T00:46:57.221Z,1.48
2022-08-09T00:50:05.384Z,1.43
2022-08-09T00:53:11.830Z,1.30
2022-08-09T00:56:15.224Z,1.27
2022-08-09T01:02:44.287Z,1.30
2022-08-09T01:05:54.103Z,1.17
2022-08-09T01:09:05.370Z,1.27
2022-08-09T01:12:14.862Z,1.13
2022-08-09T01:15:20.240Z,1.30
2022-08-09T01:18:30.600Z,1.43
2022-08-09T01:21:51.232Z,1.03
2022-08-09T01:25:06.644Z,1.90
2022-08-09T01:31:40.963Z,1.60
2022-08-09T01:34:44.831Z,1.43
2022-08-09T01:38:09.630Z,1.20
2022-08-09T01:41:18.510Z,1.67
2022-08-09T01:44:30.671Z,1.30
2022-08-09T01:47:34.049Z,1.47
2022-08-09T01:50:55.157Z,1.67
2022-08-09T01:53:59.395Z,1.50
2022-08-09T01:57:05.519Z,1.20
2022-08-09T02:00:19.435Z,1.63
2022-08-09T02:03:38.038Z,1.90
2022-08-09T02:07:02.568Z,1.50
2022-08-09T02:10:08.612Z,1.20
2022-08-09T02:13:12.929Z,1.00
2022-08-09T02:16:17.864Z,1.20
2022-08-09T02:19:39.213Z,1.50
2022-08-09T02:22:50.006Z,1.30
2022-08-09T02:25:56.833Z,1.10
2022-08-09T02:29:03.236Z,1.40
2022-08-09T02:32:10.747Z,1.30
2022-08-09T02:35:23.120Z,1.43
2022-08-09T02:38:47.873Z,1.30
2022-08-09T02:41:54.968Z,1.47
2022-08-09T02:45:02.015Z,1.37
2022-08-09T02:48:12.253Z,1.30
2022-08-09T02:51:24.248Z,1.60
2022-08-09T02:54:29.572Z,1.50
2022-08-09T02:58:00.032Z,1.40
2022-08-09T03:00:59.270Z,1.75
2022-08-09T03:04:17.597Z,2.17
2022-08-09T03:07:23.193Z,1.80
2022-08-09T03:10:26.944Z,1.53
2022-08-09T03:13:43.675Z,1.60
2022-08-09T03:16:54.215Z,1.90
2022-08-09T03:20:05.099Z,1.47
2022-08-09T03:23:24.162Z,1.77
2022-08-09T03:26:30.879Z,1.80
2022-08-09T03:29:57.056Z,1.77
2022-08-09T03:36:13.715Z,1.80
2022-08-09T03:39:20.080Z,1.73
2022-08-09T03:42:28.937Z,2.00
2022-08-09T03:46:03.832Z,1.77
2022-08-09T03:48:59.522Z,1.60
2022-08-09T03:52:08.910Z,1.40
2022-08-09T03:55:14.311Z,1.70
2022-08-09T03:58:21.286Z,1.60
2022-08-09T04:01:25.089Z,1.50
2022-08-09T04:04:32.498Z,1.80
2022-08-09T04:07:52.297Z,1.70
2022-08-09T04:11:01.407Z,1.87
2022-08-09T04:14:44.026Z,1.50
2022-08-09T04:17:29.624Z,1.70
2022-08-09T04:20:32.768Z,1.87
2022-08-09T04:23:36.883Z,1.80
2022-08-09T04:26:40.852Z,1.70
2022-08-09T04:29:49.370Z,1.50
2022-08-09T04:32:54.225Z,2.23
2022-08-09T04:35:57.229Z,1.90
2022-08-09T04:42:05.655Z,2.07
2022-08-09T04:45:13.094Z,1.40
2022-08-09T04:48:16.244Z,1.70
2022-08-09T04:51:19.022Z,2.40
2022-08-09T04:54:24.579Z,1.87
2022-08-09T04:57:59.360Z,1.43
2022-08-09T05:00:54.738Z,2.10
2022-08-09T05:07:05.868Z,1.60
2022-08-09T05:10:13.218Z,1.50
2022-08-09T05:13:15.845Z,1.20
2022-08-09T05:16:18.581Z,1.67
2022-08-09T05:19:25.689Z,2.10
2022-08-09T05:23:50.594Z,1.70
2022-08-09T05:25:53.069Z,1.80
2022-08-09T05:28:59.540Z,1.83
2022-08-09T05:32:05.861Z,1.90
2022-08-09T05:35:09.668Z,2.30
2022-08-09T05:38:12.387Z,1.87
2022-08-09T05:41:26.112Z,2.10
2022-08-09T05:44:29.050Z,2.07
2022-08-09T05:47:35.765Z,2.00
2022-08-09T05:50:56.915Z,2.63
2022-08-09T05:54:11.384Z,2.22
2022-08-09T05:57:17.610Z,2.20
2022-08-09T06:00:22.048Z,2.40
2022-08-09T06:03:24.910Z,2.45
2022-08-09T06:06:37.701Z,2.72
2022-08-09T06:09:55.234Z,2.50
2022-08-09T06:13:12.246Z,3.20
2022-08-09T06:16:22.575Z,3.37
2022-08-09T06:19:25.310Z,3.90
2022-08-09T06:22:30.438Z,3.87
2022-08-09T06:25:33.195Z,3.33
2022-08-09T06:28:38.756Z,4.17
2022-08-09T06:32:08.530Z,4.00
2022-08-09T06:35:10.103Z,4.93
2022-08-09T06:38:12.770Z,3.40
2022-08-09T06:41:20.484Z,4.03
2022-08-09T06:44:24.676Z,4.53
2022-08-09T06:47:30.205Z,3.90
2022-08-09T06:50:42.817Z,3.50
2022-08-09T06:56:53.834Z,3.40
2022-08-09T07:00:53.058Z,3.13
2022-08-09T07:03:27.623Z,2.73
2022-08-09T07:06:30.800Z,3.30
2022-08-09T07:09:55.468Z,2.70
2022-08-09T07:12:58.276Z,3.23
2022-08-09T07:16:42.347Z,2.90
2022-08-09T07:19:25.045Z,2.93
2022-08-09T07:22:34.627Z,2.45
2022-08-09T07:25:38.871Z,2.50
2022-08-09T07:29:09.411Z,2.00
2022-08-09T07:32:09.941Z,2.60
2022-08-09T07:35:14.701Z,2.00
2022-08-09T07:38:17.630Z,2.17
2022-08-09T07:41:22.124Z,2.23
2022-08-09T07:44:51.054Z,2.10
2022-08-09T07:48:01.569Z,2.38
2022-08-09T07:52:02.833Z,2.30
2022-08-09T07:54:31.604Z,1.77
2022-08-09T07:57:36.031Z,1.90
2022-08-09T08:00:59.205Z,1.80
2022-08-09T08:04:03.765Z,1.85
2022-08-09T08:07:27.052Z,2.10
2022-08-09T08:10:30.453Z,1.75
2022-08-09T08:13:42.585Z,1.83
2022-08-09T08:17:07.796Z,1.40
2022-08-09T08:20:13.772Z,1.50
2022-08-09T08:23:17.820Z,1.60
2022-08-09T08:26:26.495Z,1.50
2022-08-09T08:29:48.725Z,1.30
2022-08-09T08:32:54.271Z,1.43
2022-08-09T08:36:03.424Z,2.00
2022-08-09T08:39:08.471Z,1.73
2022-08-09T08:42:13.834Z,1.77
2022-08-09T08:45:37.168Z,1.63
2022-08-09T08:48:51.162Z,1.23
2022-08-09T08:52:01.768Z,1.48
2022-08-09T08:55:08.239Z,1.20
2022-08-09T08:58:11.636Z,1.35
2022-08-09T09:01:20.814Z,1.00
2022-08-09T09:04:29.984Z,1.27
2022-08-09T09:07:37.314Z,1.40
2022-08-09T09:10:45.542Z,1.20
2022-08-09T09:13:56.418Z,1.20
2022-08-09T09:17:00.961Z,1.02
2022-08-09T09:20:08.323Z,1.27
2022-08-09T09:23:14.052Z,1.02
2022-08-09T09:26:17.317Z,1.40
2022-08-09T09:29:45.710Z,1.30
2022-08-09T09:33:02.868Z,1.10
2022-08-09T09:36:20.521Z,1.30
2022-08-09T09:39:50.323Z,1.00
2022-08-09T09:42:56.636Z,1.80
2022-08-09T09:49:50.227Z,1.60
2022-08-09T09:52:54.884Z,0.93
2022-08-09T09:56:05.481Z,1.05
2022-08-09T09:59:09.480Z,1.13
2022-08-09T10:02:12.932Z,1.23
2022-08-09T10:05:15.612Z,0.90
2022-08-09T10:08:29.671Z,1.30
2022-08-09T10:11:59.623Z,1.10
2022-08-09T10:15:07.416Z,0.95
2022-08-09T10:18:20.586Z,1.20
2022-08-09T10:21:25.057Z,0.90
2022-08-09T10:24:35.966Z,1.02
2022-08-09T10:27:57.291Z,0.93
2022-08-09T10:34:33.942Z,1.13
2022-08-09T10:37:39.070Z,1.23
2022-08-09T10:40:44.707Z,1.20
2022-08-09T10:44:00.920Z,1.20
2022-08-09T10:48:12.679Z,1.25
2022-08-09T10:51:04.743Z,1.00
2022-08-09T10:54:12.279Z,1.20
2022-08-09T10:57:15.794Z,1.10
2022-08-09T11:03:50.530Z,0.75
2022-08-09T11:07:56.934Z,1.00
2022-08-09T11:11:00.925Z,1.25
2022-08-09T11:14:32.009Z,1.20
2022-08-09T11:18:02.674Z,1.10
2022-08-09T11:21:06.106Z,0.90
2022-08-09T11:24:10.555Z,0.80
2022-08-09T11:28:08.102Z,0.90
2022-08-09T11:30:52.881Z,1.13
2022-08-09T11:33:59.373Z,1.10
2022-08-09T11:37:04.731Z,0.90
2022-08-09T11:40:12.802Z,0.90
2022-08-09T11:43:39.606Z,0.95
2022-08-09T11:46:53.097Z,0.95
2022-08-09T11:50:53.241Z,1.27
2022-08-09T11:53:59.822Z,1.20
2022-08-09T11:56:53.020Z,0.98
2022-08-09T11:59:55.707Z,1.27
2022-08-09T12:03:00.687Z,1.20
2022-08-09T12:06:32.893Z,1.38
2022-08-09T12:09:38.205Z,1.10
2022-08-09T12:12:47.989Z,1.10
2022-08-09T12:16:00.740Z,1.20
2022-08-09T12:19:05.485Z,0.90
2022-08-09T12:22:11.034Z,1.02
2022-08-09T12:25:15.242Z,1.10
2022-08-09T12:29:14.326Z,0.90
2022-08-09T12:32:02.036Z,0.90
2022-08-09T12:35:12.535Z,0.80
2022-08-09T12:38:29.601Z,1.10
2022-08-09T12:41:41.241Z,0.98
2022-08-09T12:44:52.012Z,0.90
2022-08-09T12:47:55.451Z,1.35
2022-08-09T12:50:59.259Z,1.13
2022-08-09T12:54:05.737Z,0.85
2022-08-09T12:57:09.530Z,1.00
2022-08-09T13:00:18.802Z,1.15
2022-08-09T13:03:52.728Z,0.90
2022-08-09T13:06:52.001Z,0.85
2022-08-09T13:10:04.218Z,0.95
2022-08-09T13:13:09.490Z,0.73
2022-08-09T13:16:15.770Z,1.00
2022-08-09T13:20:08.484Z,1.02
2022-08-09T13:24:01.822Z,0.65
2022-08-09T13:26:41.682Z,0.90
2022-08-09T13:30:03.514Z,0.85
2022-08-09T13:33:23.896Z,0.60
2022-08-09T13:36:41.468Z,0.75
2022-08-09T13:41:46.502Z,0.68
2022-08-09T13:43:15.482Z,0.70
2022-08-09T13:47:16.671Z,0.70
2022-08-09T13:49:56.092Z,0.80
2022-08-09T13:52:59.798Z,0.60
2022-08-09T13:56:02.462Z,0.70
2022-08-09T13:59:06.425Z,1.00
2022-08-09T14:02:10.567Z,0.82
2022-08-09T14:05:59.218Z,0.55
2022-08-09T14:08:36.694Z,0.60
2022-08-09T14:11:47.287Z,0.63
2022-08-09T14:14:53.660Z,0.85
2022-08-09T14:18:19.362Z,0.60
2022-08-09T14:21:21.068Z,0.63
2022-08-09T14:24:32.524Z,0.85
2022-08-09T14:27:56.850Z,0.73
2022-08-09T14:31:00.428Z,0.60
2022-08-09T14:34:08.006Z,1.27
2022-08-09T14:37:11.132Z,0.70
2022-08-09T14:40:14.101Z,1.17
2022-08-09T14:43:18.698Z,0.75
2022-08-09T14:46:58.976Z,0.75
2022-08-09T14:50:01.655Z,0.70
2022-08-09T14:53:11.653Z,0.90
2022-08-09T14:56:15.016Z,0.77
2022-08-09T14:59:17.875Z,0.50
2022-08-09T15:02:25.446Z,0.60
2022-08-09T15:05:29.565Z,0.70
2022-08-09T15:08:32.313Z,0.60
2022-08-09T15:11:35.025Z,0.45
2022-08-09T15:14:38.942Z,0.70
2022-08-09T15:17:46.123Z,0.70
2022-08-09T15:21:57.884Z,0.90
2022-08-09T15:24:22.564Z,0.73
2022-08-09T15:27:29.281Z,0.77
2022-08-09T15:31:03.061Z,0.80
2022-08-09T15:34:32.057Z,0.60
2022-08-09T15:37:56.135Z,0.60
2022-08-09T15:40:59.639Z,0.80
2022-08-09T15:44:04.898Z,0.60
2022-08-09T15:47:14.284Z,0.50
2022-08-09T15:50:28.936Z,0.70
2022-08-09T15:54:02.752Z,1.00
2022-08-09T15:56:54.965Z,0.70
2022-08-09T15:59:57.628Z,0.68
2022-08-09T16:03:00.273Z,0.65
2022-08-09T16:06:07.250Z,0.88
2022-08-09T16:09:51.136Z,0.75
2022-08-09T16:12:53.584Z,0.80
2022-08-09T16:16:10.586Z,0.68
2022-08-09T16:19:16.050Z,1.05
2022-08-09T16:22:22.060Z,0.90
2022-08-09T16:25:39.964Z,0.82
2022-08-09T16:28:43.427Z,0.77
2022-08-09T16:32:19.085Z,1.20
2022-08-09T16:35:19.395Z,0.95
2022-08-09T16:38:36.976Z,0.75
2022-08-09T16:42:03.127Z,0.98
2022-08-09T16:45:03.975Z,0.80
2022-08-09T16:48:42.403Z,1.10
2022-08-09T16:51:29.732Z,0.75
2022-08-09T16:54:34.976Z,0.70
2022-08-09T16:58:08.970Z,1.08
2022-08-09T17:01:00.698Z,1.00
2022-08-09T17:04:05.403Z,0.70
2022-08-09T17:08:43.816Z,0.82
2022-08-09T17:10:33.337Z,0.85
2022-08-09T17:13:36.365Z,0.85
2022-08-09T17:16:39.493Z,0.82
2022-08-09T17:19:47.572Z,1.00
2022-08-09T17:23:06.069Z,0.88
2022-08-09T17:26:15.009Z,0.88
2022-08-09T17:29:21.007Z,0.90
2022-08-09T17:32:26.759Z,1.00
2022-08-09T17:35:41.302Z,1.08
2022-08-09T17:38:57.584Z,1.15
2022-08-09T17:42:02.817Z,1.33
2022-08-09T17:45:15.890Z,1.15
2022-08-09T17:48:30.624Z,1.10
2022-08-09T17:51:33.461Z,1.10
2022-08-09T17:54:37.276Z,1.13
2022-08-09T17:58:03.221Z,1.10
2022-08-09T18:01:04.533Z,1.05
2022-08-09T18:04:07.262Z,1.10
2022-08-09T18:07:11.777Z,1.15
2022-08-09T18:10:26.487Z,1.20
2022-08-09T18:13:43.073Z,1.10
2022-08-09T18:16:53.958Z,1.20
2022-08-09T18:20:59.838Z,1.13
2022-08-09T18:24:10.480Z,1.25
2022-08-09T18:26:46.623Z,1.67
2022-08-09T18:30:42.606Z,1.00
2022-08-09T18:33:15.298Z,1.20
2022-08-09T18:36:31.888Z,1.50
2022-08-09T18:39:35.391Z,1.40
2022-08-09T18:42:43.829Z,1.13
2022-08-09T18:46:50.074Z,1.13
2022-08-09T18:49:10.757Z,1.85
2022-08-09T18:55:16.407Z,1.20
2022-08-09T18:58:33.202Z,1.50
2022-08-09T19:01:45.042Z,1.40
2022-08-09T19:05:14.475Z,1.20
2022-08-09T19:08:14.000Z,1.40
2022-08-09T19:11:23.789Z,1.40
2022-08-09T19:14:38.318Z,2.03
2022-08-09T19:17:54.868Z,1.85
2022-08-09T19:20:59.308Z,1.45
2022-08-09T19:24:37.975Z,1.85
2022-08-09T19:27:28.741Z,1.48
2022-08-09T19:30:32.464Z,1.75
2022-08-09T19:33:36.797Z,1.95
2022-08-09T19:36:39.525Z,3.05
2022-08-09T19:40:04.270Z,2.13
2022-08-09T19:43:10.420Z,2.43
2022-08-09T19:46:35.923Z,1.83
2022-08-09T19:50:09.568Z,2.40
2022-08-09T19:53:06.500Z,2.20
2022-08-09T19:56:09.271Z,2.20
2022-08-09T19:59:58.386Z,2.23
2022-08-09T20:04:23.694Z,2.15
2022-08-09T20:06:22.386Z,1.70
2022-08-09T20:09:44.434Z,1.80
2022-08-09T20:12:48.118Z,2.13
2022-08-09T20:16:44.226Z,1.53
2022-08-09T20:19:42.599Z,1.80
2022-08-09T20:22:42.871Z,1.50
2022-08-09T20:25:52.557Z,1.83
2022-08-09T20:28:55.969Z,1.50
2022-08-09T20:32:30.049Z,1.55
2022-08-09T20:35:21.830Z,1.75
2022-08-09T20:38:33.890Z,1.57
2022-08-09T20:41:49.019Z,2.50
2022-08-09T20:45:04.498Z,1.80
2022-08-09T20:48:15.741Z,1.80
2022-08-09T20:51:24.446Z,2.20
2022-08-09T20:54:28.988Z,1.45
2022-08-09T20:57:32.295Z,1.50
2022-08-09T21:00:35.351Z,1.70
2022-08-09T21:03:39.362Z,1.58
2022-08-09T21:07:11.659Z,1.50
2022-08-09T21:10:17.297Z,1.63
2022-08-09T21:13:20.416Z,1.40
2022-08-09T21:20:18.006Z,1.63
2022-08-09T21:22:56.014Z,2.00
2022-08-09T21:26:00.967Z,1.73
2022-08-09T21:29:11.920Z,1.70
2022-08-09T21:32:18.774Z,1.90
2022-08-09T21:35:22.065Z,1.73
2022-08-09T21:42:04.189Z,1.50
2022-08-09T21:44:58.732Z,1.30
2022-08-09T21:48:01.839Z,1.52
2022-08-09T21:54:16.638Z,1.77
2022-08-09T21:57:36.882Z,1.77
2022-08-09T22:00:42.702Z,1.40
2022-08-09T22:03:58.998Z,1.60
2022-08-09T22:07:04.826Z,1.63
2022-08-09T22:10:09.223Z,1.37
2022-08-09T22:13:13.300Z,1.47
2022-08-09T22:16:21.178Z,1.50
2022-08-09T22:19:58.865Z,1.50
2022-08-09T22:22:48.971Z,1.23
2022-08-09T22:26:06.209Z,1.27
2022-08-09T22:29:12.825Z,1.40
2022-08-09T22:32:29.956Z,1.97
2022-08-09T22:36:01.309Z,1.40
2022-08-09T22:38:56.947Z,1.25
2022-08-09T22:42:16.190Z,1.70
2022-08-09T22:48:16.874Z,1.40
2022-08-09T22:48:50.593Z,1.40
2022-08-09T22:51:57.099Z,1.37
2022-08-09T22:55:00.336Z,1.37
2022-08-09T22:58:04.920Z,1.60
2022-08-09T23:01:09.199Z,1.20
2022-08-09T23:04:11.882Z,1.37
2022-08-09T23:08:21.024Z,1.20
2022-08-09T23:10:54.886Z,1.27
2022-08-09T23:13:58.763Z,1.40
2022-08-09T23:17:04.679Z,1.10
2022-08-09T23:20:09.468Z,1.40
2022-08-09T23:23:12.176Z,1.30
2022-08-09T23:26:16.602Z,1.65
2022-08-09T23:29:19.206Z,1.57
2022-08-09T23:32:23.182Z,1.20
2022-08-09T23:35:25.969Z,1.73
2022-08-09T23:38:28.588Z,1.17
2022-08-09T23:41:31.332Z,1.00
2022-08-09T23:44:34.240Z,1.55
2022-08-09T23:47:38.566Z,1.50
2022-08-09T23:50:41.211Z,1.13
2022-08-09T23:53:43.772Z,1.20
2022-08-09T23:56:54.898Z,1.02
